sensor_id;sensor_type;location;lat;lon;timestamp;temperature;humidity
41592;DHT22;28026;48.562;14.440;2024-03-02T00:02:13;5.10;99.90
41592;DHT22;28026;48.562;14.440;2024-03-02T00:04:44;5.10;99.90
41592;DHT22;28026;48.562;14.440;2024-03-02T00:07:15;5.10;99.90
41592;DHT22;28026;48.562;14.440;2024-03-02T00:09:47;5.00;99.90
41592;DHT22;28026;48.562;14.440;2024-03-02T00:12:17;5.00;99.90
41592;DHT22;28026;48.562;14.440;2024-03-02T00:14:48;5.10;99.90
41592;DHT22;28026;48.562;14.440;2024-03-02T00:17:24;5.20;99.90
41592;DHT22;28026;48.562;14.440;2024-03-02T00:19:58;5.10;99.90
41592;DHT22;28026;48.562;14.440;2024-03-02T00:22:29;5.00;99.90
41592;DHT22;28026;48.562;14.440;2024-03-02T00:25:00;5.00;99.90
41592;DHT22;28026;48.562;14.440;2024-03-02T00:27:30;4.70;99.90
41592;DHT22;28026;48.562;14.440;2024-03-02T00:30:05;4.80;99.90
41592;DHT22;28026;48.562;14.440;2024-03-02T00:33:12;4.80;99.90
41592;DHT22;28026;48.562;14.440;2024-03-02T00:35:46;4.90;99.90
41592;DHT22;28026;48.562;14.440;2024-03-02T00:38:18;4.80;99.90
41592;DHT22;28026;48.562;14.440;2024-03-02T00:40:49;4.80;99.90
41592;DHT22;28026;48.562;14.440;2024-03-02T00:46:18;4.80;99.90
41592;DHT22;28026;48.562;14.440;2024-03-02T00:51:30;4.80;99.90
41592;DHT22;28026;48.562;14.440;2024-03-02T00:54:05;4.70;99.90
41592;DHT22;28026;48.562;14.440;2024-03-02T00:56:39;4.70;99.90
41592;DHT22;28026;48.562;14.440;2024-03-02T00:59:12;4.70;99.90
41592;DHT22;28026;48.562;14.440;2024-03-02T01:01:43;4.70;99.90
41592;DHT22;28026;48.562;14.440;2024-03-02T01:04:14;4.80;99.90
41592;DHT22;28026;48.562;14.440;2024-03-02T01:06:46;4.70;99.90
41592;DHT22;28026;48.562;14.440;2024-03-02T01:09:16;4.70;99.90
41592;DHT22;28026;48.562;14.440;2024-03-02T01:11:48;4.70;99.90
41592;DHT22;28026;48.562;14.440;2024-03-02T01:14:18;4.80;99.90
41592;DHT22;28026;48.562;14.440;2024-03-02T01:16:49;4.70;99.90
41592;DHT22;28026;48.562;14.440;2024-03-02T01:19:20;4.60;99.90
41592;DHT22;28026;48.562;14.440;2024-03-02T01:21:51;4.70;99.90
41592;DHT22;28026;48.562;14.440;2024-03-02T01:24:22;4.80;99.90
41592;DHT22;28026;48.562;14.440;2024-03-02T01:26:52;4.80;99.90
41592;DHT22;28026;48.562;14.440;2024-03-02T01:29:23;4.70;99.90
41592;DHT22;28026;48.562;14.440;2024-03-02T01:31:54;4.70;99.90
41592;DHT22;28026;48.562;14.440;2024-03-02T01:34:25;4.70;99.90
41592;DHT22;28026;48.562;14.440;2024-03-02T01:36:56;4.60;99.90
41592;DHT22;28026;48.562;14.440;2024-03-02T01:39:27;4.70;99.90
41592;DHT22;28026;48.562;14.440;2024-03-02T01:41:57;4.50;99.90
41592;DHT22;28026;48.562;14.440;2024-03-02T01:44:28;4.40;99.90
41592;DHT22;28026;48.562;14.440;2024-03-02T01:46:59;4.50;99.90
41592;DHT22;28026;48.562;14.440;2024-03-02T01:49:30;4.40;99.90
41592;DHT22;28026;48.562;14.440;2024-03-02T01:52:00;4.50;99.90
41592;DHT22;28026;48.562;14.440;2024-03-02T01:54:32;4.50;99.90
41592;DHT22;28026;48.562;14.440;2024-03-02T01:57:03;4.50;99.90
41592;DHT22;28026;48.562;14.440;2024-03-02T01:59:34;4.60;99.90
41592;DHT22;28026;48.562;14.440;2024-03-02T02:02:05;4.50;99.90
41592;DHT22;28026;48.562;14.440;2024-03-02T02:04:35;4.50;99.90
41592;DHT22;28026;48.562;14.440;2024-03-02T02:07:06;4.50;99.90
41592;DHT22;28026;48.562;14.440;2024-03-02T02:09:37;4.50;99.90
41592;DHT22;28026;48.562;14.440;2024-03-02T02:12:11;4.40;99.90
41592;DHT22;28026;48.562;14.440;2024-03-02T02:14:48;4.30;99.90
41592;DHT22;28026;48.562;14.440;2024-03-02T02:17:20;4.20;99.90
41592;DHT22;28026;48.562;14.440;2024-03-02T02:19:51;4.20;99.90
41592;DHT22;28026;48.562;14.440;2024-03-02T02:22:22;4.30;99.90
41592;DHT22;28026;48.562;14.440;2024-03-02T02:24:53;4.30;99.90
41592;DHT22;28026;48.562;14.440;2024-03-02T02:27:24;4.40;99.90
41592;DHT22;28026;48.562;14.440;2024-03-02T02:29:55;4.40;99.90
41592;DHT22;28026;48.562;14.440;2024-03-02T02:32:26;4.40;99.90
41592;DHT22;28026;48.562;14.440;2024-03-02T02:34:57;4.40;99.90
41592;DHT22;28026;48.562;14.440;2024-03-02T02:37:28;4.50;99.90
41592;DHT22;28026;48.562;14.440;2024-03-02T02:39:59;4.50;99.90
41592;DHT22;28026;48.562;14.440;2024-03-02T02:42:30;4.50;99.90
41592;DHT22;28026;48.562;14.440;2024-03-02T02:45:01;4.60;99.90
41592;DHT22;28026;48.562;14.440;2024-03-02T02:47:31;4.50;99.90
41592;DHT22;28026;48.562;14.440;2024-03-02T02:50:06;4.40;99.90
41592;DHT22;28026;48.562;14.440;2024-03-02T02:52:39;4.30;99.90
41592;DHT22;28026;48.562;14.440;2024-03-02T02:55:12;4.20;99.90
41592;DHT22;28026;48.562;14.440;2024-03-02T02:57:44;4.20;99.90
41592;DHT22;28026;48.562;14.440;2024-03-02T03:00:16;4.20;99.90
41592;DHT22;28026;48.562;14.440;2024-03-02T03:02:49;4.20;99.90
41592;DHT22;28026;48.562;14.440;2024-03-02T03:05:20;4.20;99.90
41592;DHT22;28026;48.562;14.440;2024-03-02T03:07:51;4.30;99.90
41592;DHT22;28026;48.562;14.440;2024-03-02T03:10:22;4.20;99.90
41592;DHT22;28026;48.562;14.440;2024-03-02T03:12:54;4.10;99.90
41592;DHT22;28026;48.562;14.440;2024-03-02T03:15:26;4.10;99.90
41592;DHT22;28026;48.562;14.440;2024-03-02T03:17:57;4.10;99.90
41592;DHT22;28026;48.562;14.440;2024-03-02T03:20:28;4.10;99.90
41592;DHT22;28026;48.562;14.440;2024-03-02T03:22:59;4.20;99.90
41592;DHT22;28026;48.562;14.440;2024-03-02T03:25:30;4.20;99.90
41592;DHT22;28026;48.562;14.440;2024-03-02T03:28:01;4.20;99.90
41592;DHT22;28026;48.562;14.440;2024-03-02T03:30:32;4.20;99.90
41592;DHT22;28026;48.562;14.440;2024-03-02T03:33:03;4.20;99.90
41592;DHT22;28026;48.562;14.440;2024-03-02T03:35:36;4.30;99.90
41592;DHT22;28026;48.562;14.440;2024-03-02T03:38:07;4.30;99.90
41592;DHT22;28026;48.562;14.440;2024-03-02T03:40:38;4.30;99.90
41592;DHT22;28026;48.562;14.440;2024-03-02T03:43:09;4.30;99.90
41592;DHT22;28026;48.562;14.440;2024-03-02T03:45:40;4.30;99.90
41592;DHT22;28026;48.562;14.440;2024-03-02T03:48:11;4.40;99.90
41592;DHT22;28026;48.562;14.440;2024-03-02T03:50:42;4.40;99.90
41592;DHT22;28026;48.562;14.440;2024-03-02T03:53:13;4.40;99.90
41592;DHT22;28026;48.562;14.440;2024-03-02T03:55:45;4.40;99.90
41592;DHT22;28026;48.562;14.440;2024-03-02T03:58:17;4.40;99.90
41592;DHT22;28026;48.562;14.440;2024-03-02T04:00:49;4.40;99.90
41592;DHT22;28026;48.562;14.440;2024-03-02T04:03:19;4.30;99.90
41592;DHT22;28026;48.562;14.440;2024-03-02T04:05:50;4.30;99.90
41592;DHT22;28026;48.562;14.440;2024-03-02T04:08:21;4.40;99.90
41592;DHT22;28026;48.562;14.440;2024-03-02T04:10:52;4.40;99.90
41592;DHT22;28026;48.562;14.440;2024-03-02T04:13:23;4.40;99.90
41592;DHT22;28026;48.562;14.440;2024-03-02T04:15:54;4.40;99.90
41592;DHT22;28026;48.562;14.440;2024-03-02T04:18:24;4.40;99.90
41592;DHT22;28026;48.562;14.440;2024-03-02T04:20:55;4.40;99.90
41592;DHT22;28026;48.562;14.440;2024-03-02T04:23:26;4.30;99.90
41592;DHT22;28026;48.562;14.440;2024-03-02T04:25:57;4.40;99.90
41592;DHT22;28026;48.562;14.440;2024-03-02T04:28:28;4.50;99.90
41592;DHT22;28026;48.562;14.440;2024-03-02T04:30:59;4.40;99.90
41592;DHT22;28026;48.562;14.440;2024-03-02T04:33:30;4.50;99.90
41592;DHT22;28026;48.562;14.440;2024-03-02T04:36:00;4.50;99.90
41592;DHT22;28026;48.562;14.440;2024-03-02T04:38:31;4.50;99.90
41592;DHT22;28026;48.562;14.440;2024-03-02T04:41:03;4.60;99.90
41592;DHT22;28026;48.562;14.440;2024-03-02T04:43:36;4.50;99.90
41592;DHT22;28026;48.562;14.440;2024-03-02T04:46:07;4.60;99.90
41592;DHT22;28026;48.562;14.440;2024-03-02T04:48:38;4.40;99.90
41592;DHT22;28026;48.562;14.440;2024-03-02T04:51:09;4.40;99.90
41592;DHT22;28026;48.562;14.440;2024-03-02T04:53:39;4.30;99.90
41592;DHT22;28026;48.562;14.440;2024-03-02T04:56:10;4.30;99.90
41592;DHT22;28026;48.562;14.440;2024-03-02T04:59:09;4.30;99.90
41592;DHT22;28026;48.562;14.440;2024-03-02T05:01:41;4.30;99.90
41592;DHT22;28026;48.562;14.440;2024-03-02T05:04:11;4.20;99.90
41592;DHT22;28026;48.562;14.440;2024-03-02T05:06:42;4.30;99.90
41592;DHT22;28026;48.562;14.440;2024-03-02T05:09:13;4.40;99.90
41592;DHT22;28026;48.562;14.440;2024-03-02T05:11:44;4.40;99.90
41592;DHT22;28026;48.562;14.440;2024-03-02T05:14:26;4.50;99.90
41592;DHT22;28026;48.562;14.440;2024-03-02T05:16:57;4.60;99.90
41592;DHT22;28026;48.562;14.440;2024-03-02T05:19:28;4.70;99.90
41592;DHT22;28026;48.562;14.440;2024-03-02T05:21:59;4.80;99.90
41592;DHT22;28026;48.562;14.440;2024-03-02T05:24:30;4.90;99.90
41592;DHT22;28026;48.562;14.440;2024-03-02T05:27:00;5.00;99.90
41592;DHT22;28026;48.562;14.440;2024-03-02T05:29:31;5.00;99.90
41592;DHT22;28026;48.562;14.440;2024-03-02T05:32:02;5.00;99.90
41592;DHT22;28026;48.562;14.440;2024-03-02T05:34:33;5.00;99.90
41592;DHT22;28026;48.562;14.440;2024-03-02T05:37:05;5.00;99.90
41592;DHT22;28026;48.562;14.440;2024-03-02T05:39:36;5.00;99.90
41592;DHT22;28026;48.562;14.440;2024-03-02T05:42:07;5.10;99.90
41592;DHT22;28026;48.562;14.440;2024-03-02T05:44:39;5.10;99.90
41592;DHT22;28026;48.562;14.440;2024-03-02T05:47:09;5.10;99.90
41592;DHT22;28026;48.562;14.440;2024-03-02T05:49:40;5.20;99.90
41592;DHT22;28026;48.562;14.440;2024-03-02T05:52:11;5.20;99.90
41592;DHT22;28026;48.562;14.440;2024-03-02T05:54:42;5.20;99.90
41592;DHT22;28026;48.562;14.440;2024-03-02T05:57:13;5.20;99.90
41592;DHT22;28026;48.562;14.440;2024-03-02T05:59:51;5.10;99.90
41592;DHT22;28026;48.562;14.440;2024-03-02T06:02:22;5.00;99.90
41592;DHT22;28026;48.562;14.440;2024-03-02T06:04:54;5.00;99.90
41592;DHT22;28026;48.562;14.440;2024-03-02T06:07:27;5.00;99.90
41592;DHT22;28026;48.562;14.440;2024-03-02T06:09:57;4.90;99.90
41592;DHT22;28026;48.562;14.440;2024-03-02T06:12:30;5.00;99.90
41592;DHT22;28026;48.562;14.440;2024-03-02T06:15:02;5.00;99.90
41592;DHT22;28026;48.562;14.440;2024-03-02T06:17:37;5.00;99.90
41592;DHT22;28026;48.562;14.440;2024-03-02T06:20:08;4.90;99.90
41592;DHT22;28026;48.562;14.440;2024-03-02T06:22:40;4.80;99.90
41592;DHT22;28026;48.562;14.440;2024-03-02T06:25:10;4.70;99.90
41592;DHT22;28026;48.562;14.440;2024-03-02T06:27:41;4.60;99.90
41592;DHT22;28026;48.562;14.440;2024-03-02T06:30:12;4.70;99.90
41592;DHT22;28026;48.562;14.440;2024-03-02T06:32:43;4.80;99.90
41592;DHT22;28026;48.562;14.440;2024-03-02T06:35:14;4.80;99.90
41592;DHT22;28026;48.562;14.440;2024-03-02T06:37:45;4.90;99.90
41592;DHT22;28026;48.562;14.440;2024-03-02T06:40:15;5.00;99.90
41592;DHT22;28026;48.562;14.440;2024-03-02T06:42:46;5.10;99.90
41592;DHT22;28026;48.562;14.440;2024-03-02T06:45:17;5.20;99.90
41592;DHT22;28026;48.562;14.440;2024-03-02T06:47:48;5.20;99.90
41592;DHT22;28026;48.562;14.440;2024-03-02T06:50:19;5.30;99.90
41592;DHT22;28026;48.562;14.440;2024-03-02T06:52:50;5.30;99.90
41592;DHT22;28026;48.562;14.440;2024-03-02T06:55:21;5.20;99.90
41592;DHT22;28026;48.562;14.440;2024-03-02T06:57:52;5.10;99.90
41592;DHT22;28026;48.562;14.440;2024-03-02T07:00:23;5.30;99.90
41592;DHT22;28026;48.562;14.440;2024-03-02T07:02:54;5.30;99.90
41592;DHT22;28026;48.562;14.440;2024-03-02T07:05:25;5.40;99.90
41592;DHT22;28026;48.562;14.440;2024-03-02T07:07:56;5.60;99.90
41592;DHT22;28026;48.562;14.440;2024-03-02T07:10:27;5.60;99.90
41592;DHT22;28026;48.562;14.440;2024-03-02T07:12:57;5.70;99.90
41592;DHT22;28026;48.562;14.440;2024-03-02T07:15:28;5.90;99.90
41592;DHT22;28026;48.562;14.440;2024-03-02T07:17:59;6.00;99.90
41592;DHT22;28026;48.562;14.440;2024-03-02T07:20:30;6.10;99.90
41592;DHT22;28026;48.562;14.440;2024-03-02T07:23:01;6.20;99.90
41592;DHT22;28026;48.562;14.440;2024-03-02T07:25:31;6.40;99.90
41592;DHT22;28026;48.562;14.440;2024-03-02T07:28:02;6.60;99.90
41592;DHT22;28026;48.562;14.440;2024-03-02T07:30:34;6.70;99.90
41592;DHT22;28026;48.562;14.440;2024-03-02T07:33:05;6.70;99.90
41592;DHT22;28026;48.562;14.440;2024-03-02T07:35:36;6.80;99.90
41592;DHT22;28026;48.562;14.440;2024-03-02T07:38:08;6.80;99.90
41592;DHT22;28026;48.562;14.440;2024-03-02T07:40:38;6.90;99.90
41592;DHT22;28026;48.562;14.440;2024-03-02T07:43:09;6.80;99.90
41592;DHT22;28026;48.562;14.440;2024-03-02T07:45:40;6.80;99.90
41592;DHT22;28026;48.562;14.440;2024-03-02T07:48:11;7.00;99.90
41592;DHT22;28026;48.562;14.440;2024-03-02T07:50:42;6.90;99.90
41592;DHT22;28026;48.562;14.440;2024-03-02T07:53:13;7.00;99.90
41592;DHT22;28026;48.562;14.440;2024-03-02T07:55:45;6.80;99.90
41592;DHT22;28026;48.562;14.440;2024-03-02T07:58:15;6.70;99.90
41592;DHT22;28026;48.562;14.440;2024-03-02T08:00:48;6.70;99.90
41592;DHT22;28026;48.562;14.440;2024-03-02T08:03:19;6.90;99.90
41592;DHT22;28026;48.562;14.440;2024-03-02T08:05:50;7.20;99.90
41592;DHT22;28026;48.562;14.440;2024-03-02T08:08:21;7.60;99.90
41592;DHT22;28026;48.562;14.440;2024-03-02T08:10:52;7.80;99.90
41592;DHT22;28026;48.562;14.440;2024-03-02T08:13:22;8.00;99.90
41592;DHT22;28026;48.562;14.440;2024-03-02T08:15:53;7.80;99.90
41592;DHT22;28026;48.562;14.440;2024-03-02T08:18:24;7.70;99.90
41592;DHT22;28026;48.562;14.440;2024-03-02T08:20:55;7.70;99.90
41592;DHT22;28026;48.562;14.440;2024-03-02T08:23:26;7.80;99.90
41592;DHT22;28026;48.562;14.440;2024-03-02T08:25:57;7.90;99.90
41592;DHT22;28026;48.562;14.440;2024-03-02T08:28:28;8.20;99.90
41592;DHT22;28026;48.562;14.440;2024-03-02T08:30:59;8.30;99.90
41592;DHT22;28026;48.562;14.440;2024-03-02T08:33:29;8.30;99.90
41592;DHT22;28026;48.562;14.440;2024-03-02T08:36:00;8.30;99.90
41592;DHT22;28026;48.562;14.440;2024-03-02T08:38:31;8.40;99.90
41592;DHT22;28026;48.562;14.440;2024-03-02T08:41:03;8.70;99.90
41592;DHT22;28026;48.562;14.440;2024-03-02T08:43:34;8.70;99.90
41592;DHT22;28026;48.562;14.440;2024-03-02T08:46:05;8.80;99.90
41592;DHT22;28026;48.562;14.440;2024-03-02T08:48:36;8.00;99.90
41592;DHT22;28026;48.562;14.440;2024-03-02T08:51:07;7.90;99.90
41592;DHT22;28026;48.562;14.440;2024-03-02T08:53:40;8.20;99.90
41592;DHT22;28026;48.562;14.440;2024-03-02T08:56:11;8.00;99.90
41592;DHT22;28026;48.562;14.440;2024-03-02T08:58:43;7.90;99.90
41592;DHT22;28026;48.562;14.440;2024-03-02T09:01:14;7.90;99.90
41592;DHT22;28026;48.562;14.440;2024-03-02T09:03:45;8.00;99.90
41592;DHT22;28026;48.562;14.440;2024-03-02T09:06:16;8.50;99.90
41592;DHT22;28026;48.562;14.440;2024-03-02T09:08:47;9.00;99.90
41592;DHT22;28026;48.562;14.440;2024-03-02T09:11:19;9.20;99.90
41592;DHT22;28026;48.562;14.440;2024-03-02T09:13:50;9.70;99.90
41592;DHT22;28026;48.562;14.440;2024-03-02T09:16:21;9.50;99.90
41592;DHT22;28026;48.562;14.440;2024-03-02T09:18:52;9.60;99.90
41592;DHT22;28026;48.562;14.440;2024-03-02T09:21:23;9.70;99.90
41592;DHT22;28026;48.562;14.440;2024-03-02T09:23:55;9.90;99.90
41592;DHT22;28026;48.562;14.440;2024-03-02T09:26:27;9.60;99.90
41592;DHT22;28026;48.562;14.440;2024-03-02T09:28:57;9.90;99.90
41592;DHT22;28026;48.562;14.440;2024-03-02T09:31:28;10.70;99.90
41592;DHT22;28026;48.562;14.440;2024-03-02T09:33:59;11.30;99.90
41592;DHT22;28026;48.562;14.440;2024-03-02T09:36:30;11.10;99.90
41592;DHT22;28026;48.562;14.440;2024-03-02T09:39:01;10.60;99.90
41592;DHT22;28026;48.562;14.440;2024-03-02T09:41:34;10.60;99.90
41592;DHT22;28026;48.562;14.440;2024-03-02T09:44:06;10.70;99.90
41592;DHT22;28026;48.562;14.440;2024-03-02T09:46:37;10.90;99.90
41592;DHT22;28026;48.562;14.440;2024-03-02T09:49:08;11.70;99.90
41592;DHT22;28026;48.562;14.440;2024-03-02T09:51:38;11.80;99.90
41592;DHT22;28026;48.562;14.440;2024-03-02T09:54:11;12.00;99.90
41592;DHT22;28026;48.562;14.440;2024-03-02T09:56:42;12.40;99.90
41592;DHT22;28026;48.562;14.440;2024-03-02T09:59:12;12.30;99.90
41592;DHT22;28026;48.562;14.440;2024-03-02T10:01:58;11.50;99.90
41592;DHT22;28026;48.562;14.440;2024-03-02T10:04:31;11.80;99.90
41592;DHT22;28026;48.562;14.440;2024-03-02T10:09:47;10.00;99.90
41592;DHT22;28026;48.562;14.440;2024-03-02T10:12:19;10.80;99.90
41592;DHT22;28026;48.562;14.440;2024-03-02T10:14:50;11.60;99.90
41592;DHT22;28026;48.562;14.440;2024-03-02T10:17:35;12.30;99.90
41592;DHT22;28026;48.562;14.440;2024-03-02T10:20:22;11.70;99.90
41592;DHT22;28026;48.562;14.440;2024-03-02T10:25:44;11.00;99.90
41592;DHT22;28026;48.562;14.440;2024-03-02T10:28:15;11.60;99.90
41592;DHT22;28026;48.562;14.440;2024-03-02T10:30:47;12.60;99.90
41592;DHT22;28026;48.562;14.440;2024-03-02T10:33:19;13.20;99.90
41592;DHT22;28026;48.562;14.440;2024-03-02T10:35:50;13.50;99.90
41592;DHT22;28026;48.562;14.440;2024-03-02T10:38:22;13.50;99.90
41592;DHT22;28026;48.562;14.440;2024-03-02T10:40:52;13.40;99.90
41592;DHT22;28026;48.562;14.440;2024-03-02T10:43:25;12.40;99.90
41592;DHT22;28026;48.562;14.440;2024-03-02T10:45:56;13.30;99.90
41592;DHT22;28026;48.562;14.440;2024-03-02T10:48:28;14.00;99.90
41592;DHT22;28026;48.562;14.440;2024-03-02T10:51:01;13.30;99.90
41592;DHT22;28026;48.562;14.440;2024-03-02T10:53:32;13.40;99.90
41592;DHT22;28026;48.562;14.440;2024-03-02T10:56:03;14.00;99.90
41592;DHT22;28026;48.562;14.440;2024-03-02T10:58:40;14.00;99.90
41592;DHT22;28026;48.562;14.440;2024-03-02T11:01:11;13.40;99.90
41592;DHT22;28026;48.562;14.440;2024-03-02T11:03:43;13.00;99.90
41592;DHT22;28026;48.562;14.440;2024-03-02T11:06:15;12.60;99.90
41592;DHT22;28026;48.562;14.440;2024-03-02T11:08:47;12.80;99.90
41592;DHT22;28026;48.562;14.440;2024-03-02T11:11:28;12.90;99.90
41592;DHT22;28026;48.562;14.440;2024-03-02T11:14:04;13.00;99.90
41592;DHT22;28026;48.562;14.440;2024-03-02T11:16:41;13.10;99.90
41592;DHT22;28026;48.562;14.440;2024-03-02T11:19:15;13.00;99.90
41592;DHT22;28026;48.562;14.440;2024-03-02T11:21:47;13.10;99.90
41592;DHT22;28026;48.562;14.440;2024-03-02T11:26:55;13.40;99.90
41592;DHT22;28026;48.562;14.440;2024-03-02T11:32:13;14.20;99.90
41592;DHT22;28026;48.562;14.440;2024-03-02T11:34:51;14.10;99.90
41592;DHT22;28026;48.562;14.440;2024-03-02T11:37:22;14.70;99.90
41592;DHT22;28026;48.562;14.440;2024-03-02T11:39:55;15.10;99.90
41592;DHT22;28026;48.562;14.440;2024-03-02T11:42:25;14.90;99.90
41592;DHT22;28026;48.562;14.440;2024-03-02T11:44:56;14.20;99.90
41592;DHT22;28026;48.562;14.440;2024-03-02T11:47:27;13.30;99.90
41592;DHT22;28026;48.562;14.440;2024-03-02T11:50:03;13.30;99.90
41592;DHT22;28026;48.562;14.440;2024-03-02T11:52:38;13.30;99.90
41592;DHT22;28026;48.562;14.440;2024-03-02T11:55:12;13.20;99.90
41592;DHT22;28026;48.562;14.440;2024-03-02T11:57:44;13.60;99.90
41592;DHT22;28026;48.562;14.440;2024-03-02T12:00:17;14.20;99.90
41592;DHT22;28026;48.562;14.440;2024-03-02T12:03:05;14.30;99.90
41592;DHT22;28026;48.562;14.440;2024-03-02T12:05:38;14.60;99.90
41592;DHT22;28026;48.562;14.440;2024-03-02T12:08:11;14.20;99.90
41592;DHT22;28026;48.562;14.440;2024-03-02T12:10:43;14.40;99.90
41592;DHT22;28026;48.562;14.440;2024-03-02T12:13:28;15.00;99.90
41592;DHT22;28026;48.562;14.440;2024-03-02T12:15:59;14.10;99.90
41592;DHT22;28026;48.562;14.440;2024-03-02T12:18:30;14.10;99.90
41592;DHT22;28026;48.562;14.440;2024-03-02T12:21:00;14.60;99.90
41592;DHT22;28026;48.562;14.440;2024-03-02T12:23:33;13.90;99.90
41592;DHT22;28026;48.562;14.440;2024-03-02T12:26:05;14.50;99.90
41592;DHT22;28026;48.562;14.440;2024-03-02T12:28:37;14.20;99.90
41592;DHT22;28026;48.562;14.440;2024-03-02T12:31:08;14.00;99.90
41592;DHT22;28026;48.562;14.440;2024-03-02T12:33:39;13.50;99.90
41592;DHT22;28026;48.562;14.440;2024-03-02T12:36:13;13.20;99.90
41592;DHT22;28026;48.562;14.440;2024-03-02T12:38:44;13.20;99.90
41592;DHT22;28026;48.562;14.440;2024-03-02T12:41:15;13.80;99.90
41592;DHT22;28026;48.562;14.440;2024-03-02T12:43:47;13.80;99.90
41592;DHT22;28026;48.562;14.440;2024-03-02T12:46:17;13.90;99.90
41592;DHT22;28026;48.562;14.440;2024-03-02T12:48:48;13.50;99.90
41592;DHT22;28026;48.562;14.440;2024-03-02T12:51:19;13.90;99.90
41592;DHT22;28026;48.562;14.440;2024-03-02T12:53:54;13.50;99.90
41592;DHT22;28026;48.562;14.440;2024-03-02T12:56:25;13.10;99.90
41592;DHT22;28026;48.562;14.440;2024-03-02T12:58:57;13.50;99.90
41592;DHT22;28026;48.562;14.440;2024-03-02T13:01:29;13.20;99.90
41592;DHT22;28026;48.562;14.440;2024-03-02T13:04:01;13.60;99.90
41592;DHT22;28026;48.562;14.440;2024-03-02T13:06:33;13.30;99.90
41592;DHT22;28026;48.562;14.440;2024-03-02T13:09:04;13.20;99.90
41592;DHT22;28026;48.562;14.440;2024-03-02T13:11:39;13.20;99.90
41592;DHT22;28026;48.562;14.440;2024-03-02T13:14:12;13.50;99.90
41592;DHT22;28026;48.562;14.440;2024-03-02T13:16:44;13.40;99.90
41592;DHT22;28026;48.562;14.440;2024-03-02T13:19:17;13.10;99.90
41592;DHT22;28026;48.562;14.440;2024-03-02T13:21:51;12.80;99.90
41592;DHT22;28026;48.562;14.440;2024-03-02T13:24:22;13.50;99.90
41592;DHT22;28026;48.562;14.440;2024-03-02T13:26:58;13.40;99.90
41592;DHT22;28026;48.562;14.440;2024-03-02T13:29:30;13.50;99.90
41592;DHT22;28026;48.562;14.440;2024-03-02T13:32:01;13.30;99.90
41592;DHT22;28026;48.562;14.440;2024-03-02T13:34:31;13.60;99.90
41592;DHT22;28026;48.562;14.440;2024-03-02T13:37:03;13.50;99.90
41592;DHT22;28026;48.562;14.440;2024-03-02T13:39:35;13.40;99.90
41592;DHT22;28026;48.562;14.440;2024-03-02T13:42:12;13.00;99.90
41592;DHT22;28026;48.562;14.440;2024-03-02T13:44:45;13.00;99.90
41592;DHT22;28026;48.562;14.440;2024-03-02T13:47:18;12.90;99.90
41592;DHT22;28026;48.562;14.440;2024-03-02T13:49:49;13.40;99.90
41592;DHT22;28026;48.562;14.440;2024-03-02T13:52:20;13.50;99.90
41592;DHT22;28026;48.562;14.440;2024-03-02T13:54:51;13.10;99.90
41592;DHT22;28026;48.562;14.440;2024-03-02T13:57:22;13.10;99.90
41592;DHT22;28026;48.562;14.440;2024-03-02T13:59:53;13.40;99.90
41592;DHT22;28026;48.562;14.440;2024-03-02T14:02:25;13.10;99.90
41592;DHT22;28026;48.562;14.440;2024-03-02T14:04:56;13.50;99.90
41592;DHT22;28026;48.562;14.440;2024-03-02T14:07:27;14.00;99.90
41592;DHT22;28026;48.562;14.440;2024-03-02T14:09:58;13.80;99.90
41592;DHT22;28026;48.562;14.440;2024-03-02T14:12:29;13.90;99.90
41592;DHT22;28026;48.562;14.440;2024-03-02T14:14:59;13.90;99.90
41592;DHT22;28026;48.562;14.440;2024-03-02T14:17:32;14.40;99.90
41592;DHT22;28026;48.562;14.440;2024-03-02T14:20:04;14.30;99.90
41592;DHT22;28026;48.562;14.440;2024-03-02T14:22:36;13.80;99.90
41592;DHT22;28026;48.562;14.440;2024-03-02T14:25:07;14.10;99.90
41592;DHT22;28026;48.562;14.440;2024-03-02T14:27:38;14.00;99.90
41592;DHT22;28026;48.562;14.440;2024-03-02T14:30:10;14.00;99.90
41592;DHT22;28026;48.562;14.440;2024-03-02T14:32:41;14.40;99.90
41592;DHT22;28026;48.562;14.440;2024-03-02T14:35:12;14.40;99.90
41592;DHT22;28026;48.562;14.440;2024-03-02T14:37:43;14.80;99.90
41592;DHT22;28026;48.562;14.440;2024-03-02T14:40:14;14.60;99.90
41592;DHT22;28026;48.562;14.440;2024-03-02T14:42:45;14.20;99.90
41592;DHT22;28026;48.562;14.440;2024-03-02T14:45:18;14.20;99.90
41592;DHT22;28026;48.562;14.440;2024-03-02T14:47:49;13.70;99.90
41592;DHT22;28026;48.562;14.440;2024-03-02T14:50:21;13.60;99.90
41592;DHT22;28026;48.562;14.440;2024-03-02T14:52:52;14.20;99.90
41592;DHT22;28026;48.562;14.440;2024-03-02T14:55:23;13.90;99.90
41592;DHT22;28026;48.562;14.440;2024-03-02T14:57:54;13.90;99.90
41592;DHT22;28026;48.562;14.440;2024-03-02T15:00:25;13.60;99.90
41592;DHT22;28026;48.562;14.440;2024-03-02T15:02:56;13.60;99.90
41592;DHT22;28026;48.562;14.440;2024-03-02T15:05:27;13.80;99.90
41592;DHT22;28026;48.562;14.440;2024-03-02T15:07:58;13.30;99.90
41592;DHT22;28026;48.562;14.440;2024-03-02T15:10:32;13.40;99.90
41592;DHT22;28026;48.562;14.440;2024-03-02T15:13:02;13.60;99.90
41592;DHT22;28026;48.562;14.440;2024-03-02T15:15:34;13.80;99.90
41592;DHT22;28026;48.562;14.440;2024-03-02T15:18:05;13.60;99.90
41592;DHT22;28026;48.562;14.440;2024-03-02T15:20:36;13.50;99.90
41592;DHT22;28026;48.562;14.440;2024-03-02T15:23:06;13.40;99.90
41592;DHT22;28026;48.562;14.440;2024-03-02T15:25:37;13.40;99.90
41592;DHT22;28026;48.562;14.440;2024-03-02T15:28:08;13.50;99.90
41592;DHT22;28026;48.562;14.440;2024-03-02T15:30:39;13.70;99.90
41592;DHT22;28026;48.562;14.440;2024-03-02T15:33:10;14.20;99.90
41592;DHT22;28026;48.562;14.440;2024-03-02T15:35:41;14.40;99.90
41592;DHT22;28026;48.562;14.440;2024-03-02T15:38:12;14.40;99.90
41592;DHT22;28026;48.562;14.440;2024-03-02T15:40:45;14.50;99.90
41592;DHT22;28026;48.562;14.440;2024-03-02T15:43:16;14.90;99.90
41592;DHT22;28026;48.562;14.440;2024-03-02T15:45:47;14.90;99.90
41592;DHT22;28026;48.562;14.440;2024-03-02T15:48:18;14.50;99.90
41592;DHT22;28026;48.562;14.440;2024-03-02T15:50:48;14.40;99.90
41592;DHT22;28026;48.562;14.440;2024-03-02T15:53:23;14.60;99.90
41592;DHT22;28026;48.562;14.440;2024-03-02T15:55:54;15.00;99.90
41592;DHT22;28026;48.562;14.440;2024-03-02T15:58:24;15.10;99.90
41592;DHT22;28026;48.562;14.440;2024-03-02T16:00:55;14.90;99.90
41592;DHT22;28026;48.562;14.440;2024-03-02T16:03:26;14.70;99.90
41592;DHT22;28026;48.562;14.440;2024-03-02T16:05:57;14.60;99.90
41592;DHT22;28026;48.562;14.440;2024-03-02T16:08:28;14.40;99.90
41592;DHT22;28026;48.562;14.440;2024-03-02T16:10:59;14.00;99.90